Flight Track Log - Related Links

Times and Time Zones

All times are in EDT time to prevent confusion due to time zone crossing. See the EJA831 flight status page for this flight to view local times or setup timezone preferences in your user account.

Time Position Orientation Groundspeed Altitude Reporting Facility
EDT Latitude Longitude Course Direction KTS MPH feet Rate Location/Type
Wed 11:54:55 AM 41.8000 -87.6833 80° East 238 274 3,300  Level Chicago TRACON
Wed 11:55:59 AM 41.8067 -87.5778 85° East 264 304 5,000 1,429 Climbing Chicago Center
Wed 11:57:01 AM 41.8064 -87.4747 90° East 272 313 6,300 2,274 Climbing Chicago Center
Wed 11:58:03 AM 41.7928 -87.3678 100° East 288 331 9,700 2,758 Climbing Chicago Center
Wed 11:59:05 AM 41.7817 -87.2519 97° East 306 352 12,000 2,323 Climbing Chicago Center
Wed 12:00:00 PM 41.9792 -87.0426 80° East  Level Estimated
Wed 12:00:07 PM 41.7692 -87.1292 98° East 327 376 14,500  Level Chicago Center
Wed 12:01:10 PM 41.7628 -86.9719 93° East 353 406 17,700 2,661 Climbing Chicago Center
Wed 12:02:11 PM 41.7642 -86.8372 89° East 362 417 20,000 2,293 Climbing Chicago Center
Wed 12:03:13 PM 41.7656 -86.6958 89° East 372 428 22,400 2,129 Climbing Chicago Center
Wed 12:04:15 PM 41.7667 -86.5522 89° East 385 443 24,400 1,951 Climbing Chicago Center
Wed 12:05:16 PM 41.7989 -86.4114 73° East 395 455 26,400 1,887 Climbing Chicago Center
Wed 12:06:19 PM 41.8303 -86.2675 74° East 401 461 28,300 1,645 Climbing Chicago Center
Wed 12:07:20 PM 41.8653 -86.1214 72° East 409 471 29,800 1,512 Climbing Chicago Center
Wed 12:08:22 PM 41.9000 -85.9694 73° East 424 488 31,400 1,694 Climbing Chicago Center
Wed 12:09:24 PM 41.9414 -85.7842 73° East 430 495 33,300 1,790 Climbing Chicago Center
Wed 12:10:26 PM 41.9769 -85.6303 73° East 430 495 35,100 1,645 Climbing Chicago Center
Wed 12:11:28 PM 42.0067 -85.4936 74° East 426 490 36,700 1,355 Climbing Chicago Center
Wed 12:12:30 PM 42.0456 -85.3131 74° East 425 489 37,900 629 Climbing Chicago Center
Wed 12:13:32 PM 42.0811 -85.1519 73° East 449 517 38,000 48 Climbing Chicago Center
Wed 12:14:34 PM 42.1169 -84.9867 74° East 459 528 38,000  Level Chicago Center
Wed 12:15:36 PM 42.1514 -84.8269 74° East 450 518 38,000  Level Chicago Center
Wed 12:16:38 PM 42.1847 -84.6725 74° East 436 502 38,000  Level Chicago Center
Wed 12:17:40 PM 42.2178 -84.5167 74° East 433 498 38,000  Level Chicago Center
Wed 12:18:42 PM 42.2575 -84.3303 74° East 432 497 38,000  Level Chicago Center
Wed 12:19:29 PM 42.2789 -84.2253 75° East 431 496 38,000  Level Cleveland Center
Wed 12:20:31 PM 42.3111 -84.0692 74° East 430 495 38,000  Level Cleveland Center
Wed 12:21:33 PM 42.3428 -83.9111 75° East 433 498 38,000  Level Cleveland Center
Wed 12:22:35 PM 42.3822 -83.7222 74° East 434 499 38,000 -871 Level Cleveland Center
Wed 12:23:37 PM 42.4167 -83.5611 74° East 448 516 36,200 -1,790 Descending Cleveland Center
Wed 12:24:39 PM 42.4639 -83.3886 70° East 463 533 34,300 -1,790 Descending Cleveland Center
Wed 12:25:41 PM 42.5072 -83.2247 70° East 458 527 32,500 -1,742 Descending Cleveland Center
Wed 12:26:43 PM 42.5486 -83.0647 71° East 450 518 30,700 -1,694 Descending Cleveland Center
Wed 12:27:45 PM 42.5936 -82.8961 70° East 468 539 29,000 -823 Descending Cleveland Center
Wed 12:28:47 PM 42.6361 -82.7303 71° East 469 540 29,000  Level Cleveland Center
Wed 12:29:49 PM 42.6797 -82.5667 70° East 464 534 29,000  Level Cleveland Center
Wed 12:30:51 PM 42.7308 -82.3678 71° East 464 534 29,000  Level Cleveland Center
Wed 12:31:53 PM 42.7725 -82.2039 71° East 462 532 29,000  Level Cleveland Center
Wed 12:32:55 PM 42.8150 -82.0400 70° East 460 529 29,000  Level Cleveland Center
Wed 12:33:57 PM 42.8572 -81.8736 71° East 466 536 29,000  Level Cleveland Center
Wed 12:34:31 PM 42.8833 -81.7500 74° East 460 529 29,000 -383 Level Toronto Center
Wed 12:35:31 PM 42.9167 -81.5833 75° East 460 529 28,400 -1,250 Descending Toronto Center
Wed 12:36:31 PM 42.9500 -81.4167 75° East 480 552 26,500 -1,700 Descending Toronto Center
Wed 12:37:31 PM 43.0000 -81.2500 68° East 470 541 25,000 -1,200 Descending Toronto Center
Wed 12:38:31 PM 43.0500 -81.1000 65° Northeast 450 518 24,100 -900 Descending Toronto Center
Wed 12:39:31 PM 43.1167 -80.9500 59° Northeast 450 518 23,200 -900 Descending Toronto Center
Wed 12:40:31 PM 43.1833 -80.8167 56° Northeast 430 495 22,300 -900 Descending Toronto Center
Wed 12:41:31 PM 43.2833 -80.6833 44° Northeast 430 495 21,400 -900 Descending Toronto Center
Wed 12:42:31 PM 43.3500 -80.5667 52° Northeast 420 483 20,500 -1,150 Descending Toronto Center
Wed 12:43:31 PM 43.4167 -80.4333 55° Northeast 420 483 19,100 -1,700 Descending Toronto Center
Wed 12:44:31 PM 43.4667 -80.3000 63° Northeast 410 472 17,100 -2,100 Descending Toronto Center
Wed 12:45:31 PM 43.5000 -80.1667 71° East 380 437 14,900 -1,850 Descending Toronto Center
Wed 12:46:31 PM 43.5333 -80.0500 68° East 350 403 13,400 -1,750 Descending Toronto Center
Wed 12:47:31 PM 43.5833 -79.9333 59° Northeast 340 391 11,400 -1,950 Descending Toronto Center
Wed 12:48:31 PM 43.6333 -79.8667 44° Northeast 310 357 9,500 -1,200 Descending Toronto Center
Wed 12:49:31 PM 43.7000 -79.7667 47° Northeast 300 345 9,000 -1,200 Descending Toronto Center
Wed 12:50:31 PM 43.7500 -79.7000 44° Northeast 280 322 7,100 -2,250 Descending Toronto Center
Wed 12:51:31 PM 43.8000 -79.6333 44° Northeast 240 276 4,500 -2,050 Descending Toronto Center
Wed 12:52:31 PM 43.8167 -79.5667 71° East 210 242 3,000 -750 Descending Toronto Center
Wed 12:53:31 PM 43.8000 -79.5167 115° Southeast 190 219 3,000 -150 Level Toronto Center
Wed 12:54:31 PM 43.7500 -79.5167 180° South 170 196 2,700 -650 Descending Toronto Center
Wed 12:55:31 PM 43.7167 -79.5667 227° Southwest 150 173 1,700 -850 Descending Toronto Center
Wed 12:56:31 PM 43.7000 -79.5833 216° Southwest 120 138 1,000 -600 Descending Toronto Center
Wed 12:57:31 PM 43.6833 -79.6333 245° Southwest 110 127 500 -500 Descending Toronto Center

Login

Don't have an account? Register now (free) for customized features, flight alerts, and more!